YBRS weather

Barwon Heads Airport
Victoria, Australia

Public forecast

Using degrees Celsius for public forecast. Weather courtesy of forecast.io.

Closest aviation weather report (METAR) to Barwon Heads Airport

Closest report is Avalon Airport, 13.3 nm (24.6 km) N. Retrieved 2019/10/20 23:30 UTC (13 minutes ago):

YMAV 202330Z AUTO 26006KT 210V290 9999 // OVC020 13/08 Q1029

Closest aviation forecast (TAF) to Barwon Heads Airport

Closest forecast is Avalon Airport, 13.3 nm (24.6 km) N. Retrieved 2019/10/20 18:00 UTC (6 hours ago):

TAF YMAV 201713Z 2018/2118 26005KT 9999 SCT015 FM210200 14012KT 9999 FEW020 FM210800 17006KT 9999 BKN010 TEMPO 2112/2118 9999 BKN007 PROB30 2018/2022 0500 FG BKN004